createdAt,value
2018-03-04T00:01:15.183Z,100473.34
2018-03-04T00:03:47.356Z,100472.45
2018-03-04T00:06:13.571Z,100461.98
2018-03-04T00:08:39.755Z,100465.88
2018-03-04T00:11:06.025Z,100470.25
2018-03-04T00:13:32.198Z,100482.44
2018-03-04T00:15:58.606Z,100479.38
2018-03-04T00:18:24.881Z,100478.06
2018-03-04T00:20:51.122Z,100480.23
2018-03-04T00:23:17.320Z,100475.93
2018-03-04T00:25:43.520Z,100474.63
2018-03-04T00:28:09.713Z,100475.50
2018-03-04T00:30:35.923Z,100466.36
2018-03-04T00:33:02.130Z,100474.23
2018-03-04T00:35:28.292Z,100475.10
2018-03-04T00:37:54.556Z,100475.56
2018-03-04T00:40:20.978Z,100483.42
2018-03-04T00:42:47.220Z,100475.58
2018-03-04T00:45:13.418Z,100483.46
2018-03-04T00:47:39.604Z,100487.34
2018-03-04T00:50:05.885Z,100481.73
2018-03-04T00:52:32.081Z,100486.05
2018-03-04T00:54:58.259Z,100483.85
2018-03-04T00:57:24.483Z,100486.03
2018-03-04T00:59:50.654Z,100476.89
2018-03-04T01:02:16.881Z,100470.38
2018-03-04T01:04:43.067Z,100475.60
2018-03-04T01:07:09.306Z,100479.98
2018-03-04T01:09:35.525Z,100447.70
2018-03-04T01:12:01.916Z,100477.83
2018-03-04T01:14:28.105Z,100473.41
2018-03-04T01:16:54.339Z,100474.28
2018-03-04T01:19:20.496Z,100463.45
2018-03-04T01:21:46.719Z,100466.06
2018-03-04T01:24:12.904Z,100467.82
2018-03-04T01:26:39.113Z,100455.64
2018-03-04T01:29:05.319Z,100462.99
2018-03-04T01:31:31.488Z,100458.73
2018-03-04T01:33:57.708Z,100460.94
2018-03-04T01:36:24.126Z,100461.30
2018-03-04T01:38:50.316Z,100449.14
2018-03-04T01:41:16.509Z,100447.86
2018-03-04T01:43:42.726Z,100443.97
2018-03-04T01:46:08.976Z,100445.27
2018-03-04T01:48:35.158Z,100452.28
2018-03-04T01:51:01.423Z,100436.16
2018-03-04T01:53:27.651Z,100440.08
2018-03-04T01:55:53.850Z,100436.63
2018-03-04T01:58:20.382Z,100423.14
2018-03-04T02:00:46.563Z,100436.58
2018-03-04T02:03:12.769Z,100433.13
2018-03-04T02:05:38.973Z,100422.70
2018-03-04T02:08:05.153Z,100417.10
2018-03-04T02:10:31.328Z,100421.84
2018-03-04T02:12:57.509Z,100421.35
2018-03-04T02:15:23.772Z,100421.34
2018-03-04T02:17:49.946Z,100419.19
2018-03-04T02:20:16.140Z,100413.11
2018-03-04T02:22:42.337Z,100416.20
2018-03-04T02:25:08.753Z,100416.18
2018-03-04T02:27:34.973Z,100412.20
2018-03-04T02:30:01.150Z,100406.91
2018-03-04T02:32:27.586Z,100404.28
2018-03-04T02:34:53.780Z,100405.20
2018-03-04T02:37:19.971Z,100397.36
2018-03-04T02:39:46.197Z,100396.95
2018-03-04T02:42:12.377Z,100395.67
2018-03-04T02:44:38.917Z,100386.98
2018-03-04T02:47:05.083Z,100387.41
2018-03-04T02:49:31.279Z,100391.73
2018-03-04T02:51:57.504Z,100386.55
2018-03-04T02:54:23.741Z,100386.08
2018-03-04T02:56:49.995Z,100387.81
2018-03-04T02:59:16.168Z,100393.47
2018-03-04T03:01:42.335Z,100389.63
2018-03-04T03:04:08.534Z,100388.79
2018-03-04T03:06:34.774Z,100389.19
2018-03-04T03:09:00.957Z,100383.06
2018-03-04T03:11:27.384Z,100383.54
2018-03-04T03:13:53.566Z,100379.66
2018-03-04T03:16:19.783Z,100376.56
2018-03-04T03:18:45.986Z,100381.34
2018-03-04T03:21:12.178Z,100383.50
2018-03-04T03:23:38.355Z,100368.67
2018-03-04T03:26:04.543Z,100364.74
2018-03-04T03:28:30.760Z,100355.17
2018-03-04T03:30:56.960Z,100348.23
2018-03-04T03:33:23.520Z,100346.14
2018-03-04T03:35:49.768Z,100344.42
2018-03-04T03:38:16.240Z,100347.91
2018-03-04T03:40:42.428Z,100351.88
2018-03-04T03:43:08.899Z,100349.26
2018-03-04T03:45:35.095Z,100344.43
2018-03-04T03:48:01.321Z,100334.83
2018-03-04T03:50:27.481Z,100329.20
2018-03-04T03:52:53.677Z,100327.03
2018-03-04T03:55:19.906Z,100324.06
2018-03-04T03:57:46.074Z,100329.20
2018-03-04T04:00:12.342Z,100324.83
2018-03-04T04:02:38.827Z,100321.81
2018-03-04T04:05:05.015Z,100321.40
2018-03-04T04:07:31.190Z,100318.84
2018-03-04T04:09:57.395Z,100310.97
2018-03-04T04:12:23.622Z,100316.59
2018-03-04T04:14:50.012Z,100316.67
2018-03-04T04:17:16.195Z,100311.45
2018-03-04T04:19:42.400Z,100314.47
2018-03-04T04:22:08.615Z,100315.77
2018-03-04T04:24:34.792Z,100314.50
2018-03-04T04:27:01.000Z,100311.91
2018-03-04T04:29:27.409Z,100316.19
2018-03-04T04:31:53.608Z,100308.02
2018-03-04T04:34:19.771Z,100307.20
2018-03-04T04:36:46.238Z,100307.66
2018-03-04T04:39:12.416Z,100300.67
2018-03-04T04:41:38.565Z,100305.08
2018-03-04T04:44:04.836Z,100293.34
2018-03-04T04:46:31.028Z,100291.52
2018-03-04T04:48:57.194Z,100291.03
2018-03-04T04:51:23.382Z,100284.98
2018-03-04T04:53:49.657Z,100283.70
2018-03-04T04:56:15.857Z,100283.30
2018-03-04T04:58:42.039Z,100277.58
2018-03-04T05:01:08.238Z,100271.52
2018-03-04T05:03:34.636Z,100272.88
2018-03-04T05:06:00.857Z,100271.52
2018-03-04T05:08:27.257Z,100270.65
2018-03-04T05:10:53.459Z,100272.03
2018-03-04T05:13:19.629Z,100269.45
2018-03-04T05:15:45.838Z,100259.86
2018-03-04T05:18:12.000Z,100255.94
2018-03-04T05:20:38.183Z,100254.26
2018-03-04T05:23:04.391Z,100254.69
2018-03-04T05:25:30.548Z,100260.31
2018-03-04T05:27:56.789Z,100257.30
2018-03-04T05:30:22.945Z,100260.78
2018-03-04T05:32:49.123Z,100261.63
2018-03-04T05:35:15.603Z,100254.20
2018-03-04T05:37:41.888Z,100260.30
2018-03-04T05:40:08.078Z,100262.91
2018-03-04T05:42:34.281Z,100267.96
2018-03-04T05:45:00.525Z,100261.44
2018-03-04T05:47:27.060Z,100258.34
2018-03-04T05:49:53.248Z,100254.76
2018-03-04T05:52:19.453Z,100254.76
2018-03-04T05:54:45.734Z,100253.86
2018-03-04T05:57:11.930Z,100253.40
2018-03-04T05:59:38.123Z,100252.55
2018-03-04T06:02:04.345Z,100255.59
2018-03-04T06:04:30.547Z,100256.06
2018-03-04T06:06:57.716Z,100255.16
2018-03-04T06:09:23.927Z,100254.30
2018-03-04T06:11:50.158Z,100252.99
2018-03-04T06:14:16.366Z,100245.70
2018-03-04T06:16:42.553Z,100247.45
2018-03-04T06:19:08.764Z,100251.33
2018-03-04T06:21:34.965Z,100250.52
2018-03-04T06:24:01.169Z,100240.52
2018-03-04T06:26:27.362Z,100246.23
2018-03-04T06:28:53.598Z,100239.23
2018-03-04T06:31:19.808Z,100237.50
2018-03-04T06:33:46.307Z,100240.52
2018-03-04T06:36:12.536Z,100237.02
2018-03-04T06:38:38.726Z,100232.23
2018-03-04T06:41:04.932Z,100231.84
2018-03-04T06:43:31.428Z,100239.12
2018-03-04T06:45:57.875Z,100242.12
2018-03-04T06:48:24.106Z,100243.34
2018-03-04T06:50:50.350Z,100239.86
2018-03-04T06:53:16.553Z,100233.72
2018-03-04T06:55:43.084Z,100232.85
2018-03-04T06:58:09.283Z,100240.67
2018-03-04T07:00:35.432Z,100239.38
2018-03-04T07:03:01.669Z,100241.95
2018-03-04T07:05:27.907Z,100235.00
2018-03-04T07:07:54.097Z,100225.89
2018-03-04T07:10:20.324Z,100223.25
2018-03-04T07:12:46.522Z,100228.41
2018-03-04T07:15:12.746Z,100231.48
2018-03-04T07:17:38.961Z,100232.77
2018-03-04T07:20:05.277Z,100225.83
2018-03-04T07:22:31.477Z,100229.31
2018-03-04T07:24:57.682Z,100228.88
2018-03-04T07:27:23.884Z,100232.33
2018-03-04T07:29:50.164Z,100232.28
2018-03-04T07:32:16.375Z,100234.89
2018-03-04T07:34:42.572Z,100227.05
2018-03-04T07:37:08.789Z,100239.70
2018-03-04T07:39:35.101Z,100238.39
2018-03-04T07:42:01.343Z,100230.53
2018-03-04T07:44:27.558Z,100237.44
2018-03-04T07:46:53.856Z,100238.34
2018-03-04T07:51:52.179Z,100227.41
2018-03-04T07:54:18.701Z,100230.89
2018-03-04T07:56:44.929Z,100229.09
2018-03-04T07:59:11.120Z,100224.70
2018-03-04T08:01:37.590Z,100228.16
2018-03-04T08:04:03.807Z,100229.44
2018-03-04T08:06:29.978Z,100228.07
2018-03-04T08:08:56.227Z,100225.06
2018-03-04T08:11:22.485Z,100222.88
2018-03-04T08:13:48.934Z,100231.95
2018-03-04T08:16:15.155Z,100234.14
2018-03-04T08:18:41.362Z,100227.67
2018-03-04T08:21:07.554Z,100224.64
2018-03-04T08:23:33.783Z,100221.69
2018-03-04T08:26:12.250Z,100230.89
2018-03-04T08:28:38.517Z,100233.47
2018-03-04T08:31:04.729Z,100227.80
2018-03-04T08:33:30.895Z,100226.97
2018-03-04T08:35:57.100Z,100227.89
2018-03-04T08:38:23.294Z,100220.50
2018-03-04T08:40:49.475Z,100217.40
2018-03-04T08:43:15.662Z,100216.91
2018-03-04T08:45:41.866Z,100214.64
2018-03-04T08:48:08.076Z,100220.61
2018-03-04T08:50:34.550Z,100217.95
2018-03-04T08:53:00.811Z,100222.27
2018-03-04T08:55:27.298Z,100226.19
2018-03-04T08:57:53.517Z,100231.38
2018-03-04T09:00:19.728Z,100224.41
2018-03-04T09:02:45.928Z,100226.16
2018-03-04T09:05:12.091Z,100220.91
2018-03-04T09:07:38.368Z,100218.77
2018-03-04T09:10:04.775Z,100220.09
2018-03-04T09:12:30.977Z,100221.84
2018-03-04T09:14:57.221Z,100219.25
2018-03-04T09:17:23.421Z,100217.52
2018-03-04T09:19:49.917Z,100216.70
2018-03-04T09:22:16.128Z,100222.30
2018-03-04T09:24:42.321Z,100225.26
2018-03-04T09:27:08.889Z,100223.83
2018-03-04T09:29:35.116Z,100211.03
2018-03-04T09:32:01.652Z,100210.47
2018-03-04T09:34:27.838Z,100208.23
2018-03-04T09:36:54.033Z,100210.37
2018-03-04T09:39:20.218Z,100209.48
2018-03-04T09:41:46.468Z,100213.83
2018-03-04T09:44:12.694Z,100212.12
2018-03-04T09:46:38.874Z,100208.14
2018-03-04T09:49:05.092Z,100203.29
2018-03-04T09:51:31.322Z,100201.11
2018-03-04T09:53:57.593Z,100193.68
2018-03-04T09:56:23.793Z,100193.16
2018-03-04T09:58:50.261Z,100197.41
2018-03-04T10:01:16.480Z,100196.07
2018-03-04T10:03:42.763Z,100204.65
2018-03-04T10:08:40.807Z,100196.04
2018-03-04T10:11:07.044Z,100196.97
2018-03-04T10:13:33.267Z,100190.60
2018-03-04T10:15:59.662Z,100179.81
2018-03-04T10:18:26.126Z,100191.06
2018-03-04T10:20:52.301Z,100185.44
2018-03-04T10:23:18.791Z,100186.28
2018-03-04T10:25:45.029Z,100179.31
2018-03-04T10:28:11.256Z,100180.63
2018-03-04T10:30:37.492Z,100174.09
2018-03-04T10:33:03.677Z,100174.43
2018-03-04T10:35:30.246Z,100171.38
2018-03-04T10:37:56.495Z,100172.19
2018-03-04T10:40:22.727Z,100163.84
2018-03-04T10:42:48.928Z,100162.87
2018-03-04T10:45:15.191Z,100160.23
2018-03-04T10:47:41.397Z,100160.60
2018-03-04T10:50:07.594Z,100153.56
2018-03-04T10:52:33.832Z,100161.34
2018-03-04T10:55:00.062Z,100150.02
2018-03-04T10:57:26.314Z,100144.28
2018-03-04T10:59:52.536Z,100142.95
2018-03-04T11:02:22.699Z,100142.04
2018-03-04T11:04:48.992Z,100144.98
2018-03-04T11:07:15.224Z,100141.03
2018-03-04T11:09:41.458Z,100143.64
2018-03-04T11:12:07.707Z,100138.78
2018-03-04T11:14:33.886Z,100131.30
2018-03-04T11:17:00.134Z,100133.31
2018-03-04T11:19:26.359Z,100135.81
2018-03-04T11:21:52.571Z,100130.84
2018-03-04T11:24:18.804Z,100123.25
2018-03-04T11:26:45.049Z,100112.65
2018-03-04T11:29:11.307Z,100113.92
2018-03-04T11:31:37.525Z,100114.75
2018-03-04T11:34:03.756Z,100111.34
2018-03-04T11:36:29.925Z,100111.74
2018-03-04T11:38:56.371Z,100116.50
2018-03-04T11:41:22.560Z,100112.50
2018-03-04T11:43:48.823Z,100107.12
2018-03-04T11:46:15.092Z,100104.86
2018-03-04T11:48:41.283Z,100102.25
2018-03-04T11:51:07.477Z,100094.21
2018-03-04T11:53:33.711Z,100095.98
2018-03-04T11:55:59.974Z,100085.09
2018-03-04T11:58:26.448Z,100086.84
2018-03-04T12:00:52.706Z,100077.05
2018-03-04T12:03:18.884Z,100062.98
2018-03-04T12:05:45.069Z,100064.92
2018-03-04T12:08:11.330Z,100062.53
2018-03-04T12:10:37.851Z,100070.42
2018-03-04T12:13:10.052Z,100066.58
2018-03-04T12:15:36.657Z,100070.06
2018-03-04T12:18:02.806Z,100061.74
2018-03-04T12:20:29.294Z,100058.49
2018-03-04T12:22:55.544Z,100058.49
2018-03-04T12:25:21.739Z,100054.37
2018-03-04T12:27:47.950Z,100048.97
2018-03-04T12:30:14.158Z,100051.39
2018-03-04T12:32:40.375Z,100040.39
2018-03-04T12:35:06.560Z,100038.14
2018-03-04T12:37:33.013Z,100038.48
2018-03-04T12:39:59.446Z,100024.88
2018-03-04T12:42:25.642Z,100030.06
2018-03-04T12:44:51.803Z,100027.68
2018-03-04T12:47:18.024Z,100034.70
2018-03-04T12:49:44.300Z,100039.11
2018-03-04T12:52:10.487Z,100037.92
2018-03-04T12:54:36.788Z,100029.34
2018-03-04T12:57:03.314Z,100023.48
2018-03-04T12:59:29.557Z,100016.39
2018-03-04T13:01:55.761Z,100014.20
2018-03-04T13:04:21.979Z,100017.87
2018-03-04T13:06:48.220Z,100011.62
2018-03-04T13:09:14.412Z,100011.14
2018-03-04T13:11:40.675Z,100016.86
2018-03-04T13:14:07.123Z,100014.72
2018-03-04T13:16:33.687Z,100009.87
2018-03-04T13:18:59.870Z,100014.59
2018-03-04T13:21:26.358Z,100016.51
2018-03-04T13:23:52.551Z,100014.84
2018-03-04T13:26:19.018Z,100024.45
2018-03-04T13:28:45.273Z,100026.41
2018-03-04T13:31:11.782Z,100033.95
2018-03-04T13:33:38.429Z,100030.28
2018-03-04T13:36:04.633Z,100020.85
2018-03-04T13:38:30.792Z,100018.19
2018-03-04T13:40:57.239Z,100006.77
2018-03-04T13:43:23.670Z,100006.25
2018-03-04T13:45:50.068Z,99998.88
2018-03-04T13:48:16.256Z,100003.84
2018-03-04T13:50:42.500Z,100012.25
2018-03-04T13:53:08.904Z,100013.69
2018-03-04T13:55:35.060Z,100010.72
2018-03-04T13:58:01.319Z,100005.61
2018-03-04T14:00:27.579Z,100008.66
2018-03-04T14:02:53.763Z,100005.22
2018-03-04T14:05:19.954Z,100003.44
2018-03-04T14:07:46.207Z,100003.91
2018-03-04T14:10:12.463Z,99998.16
2018-03-04T14:12:38.608Z,99989.83
2018-03-04T14:15:04.996Z,99987.25
2018-03-04T14:17:31.232Z,99991.18
2018-03-04T14:19:57.411Z,99993.05
2018-03-04T14:22:23.900Z,99997.92
2018-03-04T14:24:50.111Z,99994.83
2018-03-04T14:27:16.319Z,99996.58
2018-03-04T14:29:42.524Z,99999.24
2018-03-04T14:32:08.710Z,99977.52
2018-03-04T14:34:34.932Z,99982.80
2018-03-04T14:37:01.097Z,99985.14
2018-03-04T14:39:27.349Z,99966.67
2018-03-04T14:41:53.608Z,99974.67
2018-03-04T14:44:19.866Z,99973.38
2018-03-04T14:46:46.054Z,99974.59
2018-03-04T14:49:12.243Z,99979.47
2018-03-04T14:51:38.442Z,99981.78
2018-03-04T14:54:04.665Z,99979.24
2018-03-04T14:56:30.844Z,99984.56
2018-03-04T14:58:57.040Z,99986.42
2018-03-04T15:01:23.246Z,99984.24
2018-03-04T15:03:49.501Z,99972.87
2018-03-04T15:06:15.728Z,99965.89
2018-03-04T15:08:41.910Z,99965.49
2018-03-04T15:11:08.158Z,99951.55
2018-03-04T15:13:34.364Z,99954.59
2018-03-04T15:16:00.557Z,99955.43
2018-03-04T15:18:27.043Z,99952.38
2018-03-04T15:20:53.200Z,99964.27
2018-03-04T15:23:19.625Z,99963.91
2018-03-04T15:25:46.049Z,99957.89
2018-03-04T15:28:12.568Z,99949.22
2018-03-04T15:30:39.007Z,99950.17
2018-03-04T15:33:05.224Z,99961.63
2018-03-04T15:35:31.404Z,99962.53
2018-03-04T15:37:57.894Z,99960.44
2018-03-04T15:40:24.161Z,99958.81
2018-03-04T15:42:50.348Z,99964.52
2018-03-04T15:45:16.524Z,99963.69
2018-03-04T15:47:42.741Z,99953.27
2018-03-04T15:50:08.948Z,99948.55
2018-03-04T15:52:35.087Z,99936.79
2018-03-04T15:55:01.269Z,99928.11
2018-03-04T15:57:27.534Z,99929.42
2018-03-04T15:59:53.818Z,99930.80
2018-03-04T16:02:20.055Z,99935.13
2018-03-04T16:04:46.246Z,99936.04
2018-03-04T16:07:12.476Z,99939.59
2018-03-04T16:09:38.674Z,99943.88
2018-03-04T16:12:04.824Z,99946.53
2018-03-04T16:14:31.008Z,99932.98
2018-03-04T16:16:57.231Z,99934.26
2018-03-04T16:19:23.667Z,99931.20
2018-03-04T16:21:49.836Z,99932.59
2018-03-04T16:24:16.023Z,99923.84
2018-03-04T16:26:42.557Z,99919.92
2018-03-04T16:29:08.763Z,99916.91
2018-03-04T16:31:34.964Z,99923.48
2018-03-04T16:34:01.219Z,99921.38
2018-03-04T16:36:27.410Z,99926.21
2018-03-04T16:38:53.588Z,99927.99
2018-03-04T16:41:19.903Z,99934.05
2018-03-04T16:43:46.073Z,99933.27
2018-03-04T16:46:12.277Z,99932.43
2018-03-04T16:48:38.486Z,99933.78
2018-03-04T16:51:04.770Z,99933.73
2018-03-04T16:53:31.270Z,99933.30
2018-03-04T16:55:57.455Z,99929.86
2018-03-04T16:58:23.723Z,99922.05
2018-03-04T17:00:51.189Z,99921.70
2018-03-04T17:03:17.371Z,99916.52
2018-03-04T17:05:43.538Z,99914.72
2018-03-04T17:08:10.077Z,99912.04
2018-03-04T17:10:36.327Z,99919.41
2018-03-04T17:13:02.532Z,99916.43
2018-03-04T17:15:28.741Z,99910.30
2018-03-04T17:17:54.911Z,99918.57
2018-03-04T17:20:21.131Z,99910.33
2018-03-04T17:22:47.392Z,99916.80
2018-03-04T17:25:13.574Z,99914.17
2018-03-04T17:27:39.736Z,99914.29
2018-03-04T17:30:05.961Z,99914.25
2018-03-04T17:32:32.271Z,99916.75
2018-03-04T17:34:58.467Z,99912.11
2018-03-04T17:37:24.717Z,99911.16
2018-03-04T17:39:50.905Z,99916.80
2018-03-04T17:42:17.056Z,99915.41
2018-03-04T17:44:43.253Z,99896.23
2018-03-04T17:47:09.496Z,99891.05
2018-03-04T17:49:35.695Z,99889.82
2018-03-04T17:52:01.902Z,99898.61
2018-03-04T17:54:28.413Z,99889.94
2018-03-04T17:56:54.564Z,99897.30
2018-03-04T17:59:20.748Z,99892.13
2018-03-04T18:01:47.008Z,99889.07
2018-03-04T18:04:13.201Z,99881.67
2018-03-04T18:06:39.482Z,99876.41
2018-03-04T18:09:05.847Z,99876.41
2018-03-04T18:11:32.015Z,99879.53
2018-03-04T18:13:58.234Z,99873.00
2018-03-04T18:16:24.440Z,99865.20
2018-03-04T18:18:50.660Z,99864.37
2018-03-04T18:21:17.121Z,99862.20
2018-03-04T18:23:43.327Z,99859.97
2018-03-04T18:26:09.493Z,99865.67
2018-03-04T18:28:35.685Z,99860.41
2018-03-04T18:31:01.876Z,99852.14
2018-03-04T18:33:28.371Z,99850.83
2018-03-04T18:35:54.554Z,99854.27
2018-03-04T18:38:20.754Z,99858.16
2018-03-04T18:40:46.976Z,99849.00
2018-03-04T18:43:13.212Z,99849.00
2018-03-04T18:45:39.369Z,99843.34
2018-03-04T18:48:05.537Z,99842.86
2018-03-04T18:50:32.066Z,99843.63
2018-03-04T18:52:58.467Z,99845.48
2018-03-04T18:55:24.612Z,99844.57
2018-03-04T18:57:50.861Z,99846.35
2018-03-04T19:00:17.045Z,99845.40
2018-03-04T19:02:43.275Z,99843.27
2018-03-04T19:05:09.527Z,99837.64
2018-03-04T19:07:36.072Z,99831.03
2018-03-04T19:10:02.329Z,99836.33
2018-03-04T19:12:31.703Z,99829.41
2018-03-04T19:14:57.938Z,99828.18
2018-03-04T19:17:24.122Z,99828.58
2018-03-04T19:19:50.342Z,99828.19
2018-03-04T19:22:16.531Z,99826.52
2018-03-04T19:24:42.817Z,99827.35
2018-03-04T19:27:09.056Z,99826.44
2018-03-04T19:29:35.244Z,99819.91
2018-03-04T19:32:01.406Z,99822.95
2018-03-04T19:34:27.608Z,99819.47
2018-03-04T19:36:53.778Z,99819.05
2018-03-04T19:39:19.970Z,99812.91
2018-03-04T19:41:46.142Z,99818.56
2018-03-04T19:44:12.361Z,99813.69
2018-03-04T19:46:38.902Z,99803.67
2018-03-04T19:49:05.078Z,99809.77
2018-03-04T19:51:31.307Z,99799.75
2018-03-04T19:53:57.522Z,99800.66
2018-03-04T19:56:23.740Z,99800.55
2018-03-04T19:58:49.938Z,99793.62
2018-03-04T20:01:16.145Z,99790.13
2018-03-04T20:03:42.348Z,99790.60
2018-03-04T20:06:15.554Z,99782.30
2018-03-04T20:08:41.772Z,99786.69
2018-03-04T20:11:08.247Z,99787.13
2018-03-04T20:13:34.388Z,99789.30
2018-03-04T20:16:00.904Z,99781.55
2018-03-04T20:18:27.116Z,99787.73
2018-03-04T20:20:53.307Z,99778.67
2018-03-04T20:23:19.507Z,99784.77
2018-03-04T20:25:45.659Z,99785.71
2018-03-04T20:28:11.846Z,99785.67
2018-03-04T20:30:38.019Z,99781.84
2018-03-04T20:33:04.214Z,99777.52
2018-03-04T20:35:30.387Z,99776.22
2018-03-04T20:37:56.861Z,99773.13
2018-03-04T20:40:23.027Z,99773.61
2018-03-04T20:42:49.516Z,99769.25
2018-03-04T20:45:15.679Z,99768.42
2018-03-04T20:47:41.848Z,99764.03
2018-03-04T20:50:08.044Z,99759.63
2018-03-04T20:52:34.242Z,99757.89
2018-03-04T20:55:00.453Z,99749.27
2018-03-04T20:57:26.618Z,99749.19
2018-03-04T20:59:53.115Z,99746.09
2018-03-04T21:02:19.410Z,99746.13
2018-03-04T21:04:45.627Z,99754.36
2018-03-04T21:07:11.851Z,99757.41
2018-03-04T21:09:37.995Z,99756.54
2018-03-04T21:12:04.209Z,99749.53
2018-03-04T21:14:36.578Z,99747.44
2018-03-04T21:17:02.767Z,99747.00
2018-03-04T21:19:28.949Z,99750.45
2018-03-04T21:21:55.111Z,99742.17
2018-03-04T21:24:21.333Z,99738.64
2018-03-04T21:26:47.507Z,99730.45
2018-03-04T21:29:13.799Z,99731.33
2018-03-04T21:31:40.045Z,99730.06
2018-03-04T21:34:06.284Z,99727.06
2018-03-04T21:36:32.439Z,99725.32
2018-03-04T21:38:58.602Z,99721.05
2018-03-04T21:41:24.798Z,99719.31
2018-03-04T21:43:51.264Z,99715.39
2018-03-04T21:46:17.454Z,99713.25
2018-03-04T21:48:43.636Z,99701.11
2018-03-04T21:51:10.156Z,99694.58
2018-03-04T21:53:36.354Z,99690.31
2018-03-04T21:56:02.530Z,99694.66
2018-03-04T21:58:28.760Z,99686.34
2018-03-04T22:00:55.269Z,99685.39
2018-03-04T22:03:21.482Z,99685.30
2018-03-04T22:05:47.694Z,99685.70
2018-03-04T22:08:13.923Z,99683.52
2018-03-04T22:10:46.922Z,99672.59
2018-03-04T22:13:13.481Z,99661.70
2018-03-04T22:15:39.636Z,99661.32
2018-03-04T22:18:05.853Z,99662.66
2018-03-04T22:20:32.032Z,99665.28
2018-03-04T22:22:58.490Z,99663.06
2018-03-04T22:25:24.922Z,99657.74
2018-03-04T22:27:51.094Z,99659.05
2018-03-04T22:30:17.273Z,99651.21
2018-03-04T22:32:43.420Z,99658.14
2018-03-04T22:35:09.619Z,99666.84
2018-03-04T22:37:35.839Z,99665.53
2018-03-04T22:40:02.075Z,99664.27
2018-03-04T22:42:28.274Z,99660.80
2018-03-04T22:44:54.499Z,99661.18
2018-03-04T22:47:20.709Z,99656.39
2018-03-04T22:49:46.911Z,99650.30
2018-03-04T22:52:13.127Z,99648.17
2018-03-04T22:54:39.275Z,99652.53
2018-03-04T22:57:05.546Z,99648.13
2018-03-04T22:59:31.722Z,99647.69
2018-03-04T23:01:57.954Z,99649.03
2018-03-04T23:04:24.108Z,99636.84
2018-03-04T23:06:50.310Z,99635.50
2018-03-04T23:09:16.533Z,99628.53
2018-03-04T23:11:42.736Z,99627.66
2018-03-04T23:14:08.944Z,99638.11
2018-03-04T23:16:35.101Z,99646.77
2018-03-04T23:19:01.249Z,99630.67
2018-03-04T23:21:27.559Z,99638.89
2018-03-04T23:23:53.751Z,99639.76
2018-03-04T23:26:19.923Z,99638.02
2018-03-04T23:28:46.146Z,99628.01
2018-03-04T23:31:12.289Z,99622.78
2018-03-04T23:33:38.484Z,99627.58
2018-03-04T23:36:04.664Z,99624.12
2018-03-04T23:38:31.159Z,99618.91
2018-03-04T23:40:57.409Z,99621.09
2018-03-04T23:43:23.581Z,99612.33
2018-03-04T23:45:49.736Z,99611.46
2018-03-04T23:48:15.950Z,99597.48
2018-03-04T23:50:42.120Z,99597.53
2018-03-04T23:53:08.326Z,99598.05
2018-03-04T23:55:34.856Z,99596.78
2018-03-04T23:58:01.082Z,99585.81
